EDDL/DUS METAR and TAF weather

Enter ICAO airport designator
Station Type Date Time Source
EDDL METAR 2021/03/04 21:50 UTC NOAA

EDDL 042150Z 34008KT 9999 SCT018 BKN030 04/01 Q1021 NOSIG


Station Type Date Time Source
EDDL Decoded METAR 2021/03/04 21:50 UTC NOAA

Duesseldorf, Germany (EDDL) 51-18N 006-46E 41M
Mar 04, 2021 - 04:50 PM EST / 2021.03.04 2150 UTC
Wind: from the NNW (340 degrees) at 9 MPH (8 KT):0
Visibility: greater than 7 mile(s):0
Sky conditions: mostly cloudy
Temperature: 39 F (4 C)
Dew Point: 33 F (1 C)
Relative Humidity: 80%
Pressure (altimeter): 30.15 in. Hg (1021 hPa)
ob: EDDL 042150Z 34008KT 9999 SCT018 BKN030 04/01 Q1021 NOSIG
cycle: 22

Station Type Date Time Source
EDDL TAF 2021/03/04 18:28 UTC NOAA

TAF EDDL 041700Z 0418/0524 33006KT 9999 BKN020
TEMPO 0418/0508 BKN012
BECMG 0506/0509 03007KT
TEMPO 0511/0514 02012KT

Example: see airport list